Terminal Aerodrome Forecast
Issued by NWS Spokane, WA

Home | Current Version | Previous Version | Text Only | Print | Product List | Glossary On
Versions: 1 2 3 4 5 6 7 8 9 10 11 12 13 14 15 16 17 18 19 20 21 22 23 24 25 26 27
000
FTUS46 KOTX 021139
TAFGEG
TAF
KGEG 021139Z 0212/0312 16007KT P6SM SCT200
     FM021700 21010KT P6SM BKN200
     FM022000 23014G22KT P6SM FEW060 SCT200
     FM030300 24020G30KT P6SM VCSH FEW050 BKN080
     FM030500 24016G23KT P6SM SCT080
     FM031100 22016G23KT P6SM -SHRA BKN070 OVC090=

USA.gov is the U.S. government's official web portal to all federal, state and local government web resources and services.